createdAt,value
2018-06-16T00:00:20.881Z,56.42
2018-06-16T00:05:13.789Z,56.51
2018-06-16T00:10:06.739Z,56.64
2018-06-16T00:14:59.661Z,56.99
2018-06-16T00:19:52.502Z,56.44
2018-06-16T00:24:45.416Z,56.61
2018-06-16T00:29:38.311Z,56.89
2018-06-16T00:34:31.287Z,56.78
2018-06-16T00:39:24.133Z,56.71
2018-06-16T00:44:17.069Z,56.87
2018-06-16T00:49:10.257Z,57.44
2018-06-16T00:54:03.146Z,57.70
2018-06-16T00:58:56.035Z,57.61
2018-06-16T01:03:48.957Z,58.12
2018-06-16T01:08:41.787Z,57.99
2018-06-16T01:13:34.665Z,57.71
2018-06-16T01:18:27.628Z,58.58
2018-06-16T01:23:20.566Z,57.84
2018-06-16T01:28:13.443Z,58.39
2018-06-16T01:33:06.274Z,58.40
2018-06-16T01:37:59.141Z,59.12
2018-06-16T01:42:52.005Z,59.04
2018-06-16T01:47:44.872Z,58.34
2018-06-16T01:52:37.741Z,58.67
2018-06-16T01:57:30.563Z,58.56
2018-06-16T02:02:23.438Z,58.69
2018-06-16T02:07:16.341Z,58.91
2018-06-16T02:12:09.202Z,59.67
2018-06-16T02:17:02.080Z,59.14
2018-06-16T02:21:54.930Z,59.93
2018-06-16T02:26:47.731Z,59.39
2018-06-16T02:31:40.646Z,59.46
2018-06-16T02:36:33.431Z,59.76
2018-06-16T02:41:26.312Z,59.98
2018-06-16T02:46:19.220Z,59.76
2018-06-16T02:51:12.087Z,59.42
2018-06-16T02:56:05.026Z,60.01
2018-06-16T03:00:57.914Z,60.88
2018-06-16T03:05:50.725Z,60.16
2018-06-16T03:10:43.587Z,60.71
2018-06-16T03:15:36.641Z,60.46
2018-06-16T03:20:29.641Z,59.95
2018-06-16T03:25:22.486Z,60.96
2018-06-16T03:30:15.372Z,60.81
2018-06-16T03:35:08.243Z,60.88
2018-06-16T03:40:01.079Z,60.80
2018-06-16T03:44:53.956Z,60.67
2018-06-16T03:49:46.801Z,60.94
2018-06-16T03:54:39.637Z,60.64
2018-06-16T03:59:32.502Z,60.49
2018-06-16T04:04:25.327Z,60.31
2018-06-16T04:09:18.198Z,60.76
2018-06-16T04:14:11.085Z,61.18
2018-06-16T04:19:04.011Z,60.69
2018-06-16T04:23:56.855Z,61.17
2018-06-16T04:28:49.713Z,61.11
2018-06-16T04:33:42.600Z,61.39
2018-06-16T04:38:35.504Z,61.05
2018-06-16T04:43:28.303Z,61.14
2018-06-16T04:48:21.111Z,62.00
2018-06-16T04:53:14.042Z,61.97
2018-06-16T04:58:06.946Z,62.25
2018-06-16T05:02:59.906Z,62.38
2018-06-16T05:07:52.734Z,61.57
2018-06-16T05:12:45.629Z,61.50
2018-06-16T05:17:38.517Z,61.65
2018-06-16T05:22:31.371Z,62.30
2018-06-16T05:27:24.289Z,61.95
2018-06-16T05:32:17.194Z,62.28
2018-06-16T05:37:10.003Z,62.00
2018-06-16T05:42:02.947Z,62.15
2018-06-16T05:46:55.842Z,62.04
2018-06-16T05:51:48.663Z,62.04
2018-06-16T05:56:41.594Z,62.14
2018-06-16T06:01:34.472Z,62.91
2018-06-16T06:06:27.441Z,62.71
2018-06-16T06:11:20.281Z,61.78
2018-06-16T06:16:13.221Z,62.32
2018-06-16T06:21:06.198Z,61.52
2018-06-16T06:25:59.101Z,60.87
2018-06-16T06:30:52.001Z,59.53
2018-06-16T06:35:44.909Z,59.45
2018-06-16T06:40:37.834Z,59.31
2018-06-16T06:45:30.808Z,58.91
2018-06-16T06:50:23.707Z,58.72
2018-06-16T06:55:16.574Z,57.87
2018-06-16T07:00:09.451Z,57.26
2018-06-16T07:05:02.337Z,58.09
2018-06-16T07:09:55.309Z,58.00
2018-06-16T07:14:48.209Z,57.12
2018-06-16T07:19:41.123Z,56.68
2018-06-16T07:24:34.052Z,55.92
2018-06-16T07:29:26.951Z,56.35
2018-06-16T07:34:19.819Z,54.64
2018-06-16T07:39:12.695Z,52.66
2018-06-16T07:44:05.717Z,51.54
2018-06-16T07:48:58.637Z,51.34
2018-06-16T07:53:51.521Z,51.61
2018-06-16T07:58:44.380Z,51.15
2018-06-16T08:03:37.297Z,51.25
2018-06-16T08:08:30.116Z,50.82
2018-06-16T08:13:22.945Z,52.16
2018-06-16T08:18:15.774Z,51.72
2018-06-16T08:23:08.584Z,51.42
2018-06-16T08:28:01.482Z,49.99
2018-06-16T08:32:54.294Z,50.06
2018-06-16T08:37:47.169Z,49.51
2018-06-16T08:42:40.279Z,48.43
2018-06-16T08:47:33.089Z,49.12
2018-06-16T08:52:25.939Z,48.49
2018-06-16T08:57:18.874Z,48.41
2018-06-16T09:02:11.797Z,48.93
2018-06-16T09:07:04.728Z,47.67
2018-06-16T09:11:57.663Z,47.68
2018-06-16T09:16:50.489Z,47.33
2018-06-16T09:21:43.473Z,47.65
2018-06-16T09:26:36.420Z,48.33
2018-06-16T09:31:29.268Z,46.58
2018-06-16T09:36:22.133Z,47.21
2018-06-16T09:41:15.066Z,46.99
2018-06-16T09:46:08.031Z,45.58
2018-06-16T09:51:01.022Z,45.26
2018-06-16T09:55:54.098Z,46.35
2018-06-16T10:00:47.261Z,46.44
2018-06-16T10:05:40.250Z,46.34
2018-06-16T10:10:33.156Z,45.12
2018-06-16T10:15:26.118Z,43.93
2018-06-16T10:20:19.271Z,43.75
2018-06-16T10:25:12.183Z,42.78
2018-06-16T10:30:05.159Z,42.33
2018-06-16T10:34:58.018Z,42.06
2018-06-16T10:39:50.959Z,41.40
2018-06-16T10:44:43.769Z,41.40
2018-06-16T10:49:36.652Z,41.26
2018-06-16T10:54:29.547Z,41.54
2018-06-16T10:59:22.414Z,41.52
2018-06-16T11:04:15.330Z,40.88
2018-06-16T11:09:09.317Z,40.66
2018-06-16T11:14:02.171Z,41.35
2018-06-16T11:18:55.000Z,39.97
2018-06-16T11:23:47.889Z,39.96
2018-06-16T11:28:40.768Z,38.66
2018-06-16T11:33:33.618Z,37.47
2018-06-16T11:38:26.438Z,36.18
2018-06-16T11:43:19.265Z,36.29
2018-06-16T11:48:12.117Z,35.53
2018-06-16T11:53:05.026Z,34.93
2018-06-16T11:57:57.888Z,35.74
2018-06-16T12:02:50.820Z,35.75
2018-06-16T12:07:43.833Z,34.11
2018-06-16T12:12:36.747Z,34.05
2018-06-16T12:17:29.566Z,33.74
2018-06-16T12:22:22.445Z,32.86
2018-06-16T12:27:15.293Z,32.61
2018-06-16T12:32:08.238Z,33.04
2018-06-16T12:37:01.167Z,33.42
2018-06-16T12:41:53.994Z,33.32
2018-06-16T12:46:46.891Z,33.64
2018-06-16T12:51:39.681Z,33.08
2018-06-16T12:56:32.571Z,34.44
2018-06-16T13:01:25.459Z,33.73
2018-06-16T13:06:18.356Z,33.72
2018-06-16T13:11:11.766Z,33.79
2018-06-16T13:16:04.961Z,34.53
2018-06-16T13:20:57.801Z,34.36
2018-06-16T13:25:50.615Z,35.35
2018-06-16T13:30:43.561Z,34.78
2018-06-16T13:35:36.432Z,35.56
2018-06-16T13:40:29.329Z,35.43
2018-06-16T13:45:22.152Z,34.35
2018-06-16T13:50:14.980Z,35.57
2018-06-16T13:55:07.809Z,34.96
2018-06-16T14:00:00.672Z,35.03
2018-06-16T14:04:53.660Z,34.81
2018-06-16T14:09:46.589Z,36.20
2018-06-16T14:14:39.512Z,36.17
2018-06-16T14:19:32.378Z,35.29
2018-06-16T14:24:25.217Z,35.92
2018-06-16T14:29:18.108Z,35.71
2018-06-16T14:34:10.935Z,36.62
2018-06-16T14:39:05.682Z,37.10
2018-06-16T14:43:58.559Z,35.88
2018-06-16T14:48:51.444Z,36.17
2018-06-16T14:53:44.345Z,35.46
2018-06-16T14:58:37.358Z,35.23
2018-06-16T15:03:30.320Z,35.57
2018-06-16T15:08:23.221Z,35.62
2018-06-16T15:13:16.138Z,34.69
2018-06-16T15:18:09.555Z,34.99
2018-06-16T15:23:02.495Z,34.66
2018-06-16T15:27:55.385Z,35.00
2018-06-16T15:32:48.313Z,34.59
2018-06-16T15:37:41.238Z,34.79
2018-06-16T15:42:34.248Z,34.09
2018-06-16T15:47:27.027Z,35.00
2018-06-16T15:52:19.848Z,34.69
2018-06-16T15:57:12.796Z,35.31
2018-06-16T16:02:05.720Z,35.06
2018-06-16T16:06:58.553Z,33.88
2018-06-16T16:11:51.309Z,34.18
2018-06-16T16:16:44.146Z,34.21
2018-06-16T16:21:37.050Z,35.57
2018-06-16T16:26:29.909Z,34.99
2018-06-16T16:31:22.881Z,35.52
2018-06-16T16:36:15.733Z,34.49
2018-06-16T16:41:08.696Z,34.77
2018-06-16T16:46:01.564Z,36.07
2018-06-16T16:50:54.474Z,34.77
2018-06-16T16:55:47.333Z,34.57
2018-06-16T17:00:40.248Z,35.22
2018-06-16T17:05:33.105Z,35.29
2018-06-16T17:10:25.950Z,34.63
2018-06-16T17:15:18.868Z,34.43
2018-06-16T17:20:11.856Z,34.44
2018-06-16T17:25:04.881Z,34.20
2018-06-16T17:29:57.819Z,35.75
2018-06-16T17:34:50.749Z,34.57
2018-06-16T17:39:43.682Z,35.19
2018-06-16T17:44:36.748Z,35.19
2018-06-16T17:49:29.682Z,34.60
2018-06-16T17:54:22.617Z,34.84
2018-06-16T17:59:15.561Z,35.21
2018-06-16T18:04:08.450Z,34.59
2018-06-16T18:09:01.311Z,34.81
2018-06-16T18:13:54.298Z,36.05
2018-06-16T18:18:47.184Z,35.23
2018-06-16T18:23:40.113Z,36.19
2018-06-16T18:28:33.449Z,36.67
2018-06-16T18:33:26.336Z,36.18
2018-06-16T18:38:19.937Z,36.91
2018-06-16T18:43:12.852Z,37.17
2018-06-16T18:48:05.797Z,36.87
2018-06-16T18:52:58.692Z,36.33
2018-06-16T18:57:51.601Z,36.30
2018-06-16T19:02:44.453Z,36.04
2018-06-16T19:07:37.497Z,36.12
2018-06-16T19:12:30.444Z,36.11
2018-06-16T19:17:23.429Z,35.89
2018-06-16T19:22:16.302Z,36.95
2018-06-16T19:27:09.147Z,36.23
2018-06-16T19:32:02.078Z,36.11
2018-06-16T19:36:54.989Z,37.14
2018-06-16T19:41:47.888Z,36.69
2018-06-16T19:46:40.829Z,37.13
2018-06-16T19:51:33.832Z,37.96
2018-06-16T19:56:26.737Z,37.99
2018-06-16T20:01:19.724Z,37.42
2018-06-16T20:06:12.591Z,37.73
2018-06-16T20:11:05.436Z,38.69
2018-06-16T20:15:58.212Z,38.54
2018-06-16T20:20:51.081Z,38.44
2018-06-16T20:25:43.992Z,37.85
2018-06-16T20:30:36.885Z,38.01
2018-06-16T20:35:29.854Z,37.97
2018-06-16T20:40:22.730Z,38.49
2018-06-16T20:45:15.638Z,39.28
2018-06-16T20:50:08.487Z,38.66
2018-06-16T20:55:01.462Z,39.34
2018-06-16T20:59:54.388Z,39.52
2018-06-16T21:04:47.258Z,40.01
2018-06-16T21:09:40.186Z,38.97
2018-06-16T21:14:33.088Z,39.00
2018-06-16T21:19:25.961Z,38.98
2018-06-16T21:24:18.840Z,40.16
2018-06-16T21:29:11.827Z,39.79
2018-06-16T21:34:04.782Z,40.62
2018-06-16T21:38:57.860Z,40.82
2018-06-16T21:43:50.707Z,41.22
2018-06-16T21:48:43.629Z,41.53
2018-06-16T21:53:36.584Z,42.27
2018-06-16T21:58:30.382Z,42.48
2018-06-16T22:03:23.265Z,42.31
2018-06-16T22:08:24.632Z,42.14
2018-06-16T22:13:17.550Z,42.86
2018-06-16T22:18:10.617Z,43.25
2018-06-16T22:23:03.554Z,43.67
2018-06-16T22:27:56.497Z,42.84
2018-06-16T22:32:49.383Z,43.49
2018-06-16T22:37:42.618Z,43.14
2018-06-16T22:42:35.480Z,43.11
2018-06-16T22:47:28.356Z,42.67
2018-06-16T22:57:20.908Z,41.59
2018-06-16T23:02:13.847Z,42.17
2018-06-16T23:07:06.989Z,42.05
2018-06-16T23:11:59.902Z,42.26
2018-06-16T23:16:52.723Z,42.69
2018-06-16T23:21:45.609Z,43.17
2018-06-16T23:26:38.535Z,43.63
2018-06-16T23:31:31.475Z,41.82
2018-06-16T23:36:24.377Z,42.26
2018-06-16T23:41:17.248Z,43.02
2018-06-16T23:46:10.209Z,43.08
2018-06-16T23:51:03.084Z,42.27
2018-06-16T23:55:55.969Z,42.03
